sensor_id;sensor_type;location;lat;lon;timestamp;pressure;altitude;pressure_sealevel;temperature;humidity
65131;BME280;51709;54.912;8.316;2024-01-15T00:01:29;98818.00;;;5.20;79.47
65131;BME280;51709;54.912;8.316;2024-01-15T00:06:50;98808.09;;;5.20;79.37
65131;BME280;51709;54.912;8.316;2024-01-15T00:12:11;98831.63;;;5.18;79.26
65131;BME280;51709;54.912;8.316;2024-01-15T00:17:32;98837.03;;;5.18;79.41
65131;BME280;51709;54.912;8.316;2024-01-15T00:22:53;98808.63;;;5.16;79.09
65131;BME280;51709;54.912;8.316;2024-01-15T00:28:14;98823.63;;;5.10;79.27
65131;BME280;51709;54.912;8.316;2024-01-15T00:33:34;98835.41;;;5.01;79.61
65131;BME280;51709;54.912;8.316;2024-01-15T00:38:56;98831.38;;;4.97;79.69
65131;BME280;51709;54.912;8.316;2024-01-15T00:44:16;98803.47;;;4.98;79.48
65131;BME280;51709;54.912;8.316;2024-01-15T00:49:37;98814.22;;;5.06;79.29
65131;BME280;51709;54.912;8.316;2024-01-15T00:54:58;98801.72;;;5.13;79.17
65131;BME280;51709;54.912;8.316;2024-01-15T01:00:19;98813.28;;;5.22;78.83
65131;BME280;51709;54.912;8.316;2024-01-15T01:05:39;98818.47;;;4.85;79.36
65131;BME280;51709;54.912;8.316;2024-01-15T01:11:00;98828.09;;;4.63;79.61
65131;BME280;51709;54.912;8.316;2024-01-15T01:16:20;98826.09;;;4.65;79.37
65131;BME280;51709;54.912;8.316;2024-01-15T01:21:41;98836.53;;;4.60;79.53
65131;BME280;51709;54.912;8.316;2024-01-15T01:27:02;98813.34;;;4.43;79.84
65131;BME280;51709;54.912;8.316;2024-01-15T01:32:23;98804.94;;;4.54;79.54
65131;BME280;51709;54.912;8.316;2024-01-15T01:37:43;98792.78;;;4.74;79.21
65131;BME280;51709;54.912;8.316;2024-01-15T01:43:05;98804.19;;;4.84;79.13
65131;BME280;51709;54.912;8.316;2024-01-15T01:48:25;98811.38;;;5.00;78.87
65131;BME280;51709;54.912;8.316;2024-01-15T01:53:46;98804.72;;;5.18;78.46
65131;BME280;51709;54.912;8.316;2024-01-15T01:59:08;98795.44;;;5.29;78.45
65131;BME280;51709;54.912;8.316;2024-01-15T02:04:31;98810.03;;;5.34;78.45
65131;BME280;51709;54.912;8.316;2024-01-15T02:09:52;98831.53;;;5.43;78.33
65131;BME280;51709;54.912;8.316;2024-01-15T02:15:12;98821.44;;;5.45;78.54
65131;BME280;51709;54.912;8.316;2024-01-15T02:20:33;98811.38;;;5.39;78.46
65131;BME280;51709;54.912;8.316;2024-01-15T02:25:54;98848.09;;;5.31;78.59
65131;BME280;51709;54.912;8.316;2024-01-15T02:31:14;98842.38;;;5.26;78.65
65131;BME280;51709;54.912;8.316;2024-01-15T02:36:35;98815.50;;;5.18;78.17
65131;BME280;51709;54.912;8.316;2024-01-15T02:41:56;98838.22;;;5.16;77.83
65131;BME280;51709;54.912;8.316;2024-01-15T02:47:18;98847.47;;;5.13;78.07
65131;BME280;51709;54.912;8.316;2024-01-15T02:52:38;98866.66;;;5.10;77.92
65131;BME280;51709;54.912;8.316;2024-01-15T02:57:59;98855.91;;;5.10;77.57
65131;BME280;51709;54.912;8.316;2024-01-15T03:03:19;98863.66;;;5.05;77.58
65131;BME280;51709;54.912;8.316;2024-01-15T03:08:40;98863.66;;;5.05;77.90
65131;BME280;51709;54.912;8.316;2024-01-15T03:14:01;98845.16;;;5.02;77.75
65131;BME280;51709;54.912;8.316;2024-01-15T03:19:21;98863.66;;;5.05;77.83
65131;BME280;51709;54.912;8.316;2024-01-15T03:24:42;98856.22;;;5.07;77.96
65131;BME280;51709;54.912;8.316;2024-01-15T03:30:03;98872.72;;;5.04;78.09
65131;BME280;51709;54.912;8.316;2024-01-15T03:35:24;98887.03;;;5.05;77.81
65131;BME280;51709;54.912;8.316;2024-01-15T03:40:49;98872.38;;;5.07;77.99
65131;BME280;51709;54.912;8.316;2024-01-15T03:46:10;98888.38;;;5.01;78.22
65131;BME280;51709;54.912;8.316;2024-01-15T03:51:31;98900.31;;;4.98;78.27
65131;BME280;51709;54.912;8.316;2024-01-15T03:56:51;98879.63;;;4.99;78.06
65131;BME280;51709;54.912;8.316;2024-01-15T04:02:12;98917.78;;;5.02;77.99
65131;BME280;51709;54.912;8.316;2024-01-15T04:07:33;98911.56;;;5.02;78.22
65131;BME280;51709;54.912;8.316;2024-01-15T04:12:53;98919.13;;;4.98;78.34
65131;BME280;51709;54.912;8.316;2024-01-15T04:18:15;98909.75;;;4.94;78.17
65131;BME280;51709;54.912;8.316;2024-01-15T04:23:36;98906.72;;;4.97;78.33
65131;BME280;51709;54.912;8.316;2024-01-15T04:28:57;98912.09;;;4.97;78.27
65131;BME280;51709;54.912;8.316;2024-01-15T04:34:19;98895.44;;;4.94;78.42
65131;BME280;51709;54.912;8.316;2024-01-15T04:39:40;98891.91;;;4.93;78.47
65131;BME280;51709;54.912;8.316;2024-01-15T04:45:02;98899.00;;;4.94;78.13
65131;BME280;51709;54.912;8.316;2024-01-15T04:50:22;98879.31;;;4.94;78.44
65131;BME280;51709;54.912;8.316;2024-01-15T04:55:43;98924.56;;;4.90;78.50
65131;BME280;51709;54.912;8.316;2024-01-15T05:01:04;98907.38;;;4.91;78.33
65131;BME280;51709;54.912;8.316;2024-01-15T05:06:25;98914.78;;;4.97;78.05
65131;BME280;51709;54.912;8.316;2024-01-15T05:11:45;98919.50;;;4.79;78.55
65131;BME280;51709;54.912;8.316;2024-01-15T05:17:05;98930.44;;;4.62;78.57
65131;BME280;51709;54.912;8.316;2024-01-15T05:22:30;98936.19;;;4.59;78.64
65131;BME280;51709;54.912;8.316;2024-01-15T05:27:51;98931.63;;;4.67;78.42
65131;BME280;51709;54.912;8.316;2024-01-15T05:33:12;98947.59;;;4.69;78.42
65131;BME280;51709;54.912;8.316;2024-01-15T05:38:32;98900.53;;;4.65;78.61
65131;BME280;51709;54.912;8.316;2024-01-15T05:43:53;98938.00;;;4.66;78.36
65131;BME280;51709;54.912;8.316;2024-01-15T05:49:13;98928.44;;;4.64;78.52
65131;BME280;51709;54.912;8.316;2024-01-15T05:54:35;98925.25;;;4.60;78.37
65131;BME280;51709;54.912;8.316;2024-01-15T05:59:55;98949.44;;;4.60;78.30
65131;BME280;51709;54.912;8.316;2024-01-15T06:05:16;98943.41;;;4.58;78.25
65131;BME280;51709;54.912;8.316;2024-01-15T06:10:37;98917.50;;;4.57;78.35
65131;BME280;51709;54.912;8.316;2024-01-15T06:15:57;98955.13;;;4.57;78.56
65131;BME280;51709;54.912;8.316;2024-01-15T06:21:18;98971.25;;;4.57;78.32
65131;BME280;51709;54.912;8.316;2024-01-15T06:26:38;98963.72;;;4.53;78.50
65131;BME280;51709;54.912;8.316;2024-01-15T06:31:59;98972.63;;;4.53;78.78
65131;BME280;51709;54.912;8.316;2024-01-15T06:37:19;98978.00;;;4.53;78.85
65131;BME280;51709;54.912;8.316;2024-01-15T06:42:40;98976.47;;;4.51;78.46
65131;BME280;51709;54.912;8.316;2024-01-15T06:48:02;98979.66;;;4.46;78.44
65131;BME280;51709;54.912;8.316;2024-01-15T06:53:22;98987.38;;;4.41;78.20
65131;BME280;51709;54.912;8.316;2024-01-15T06:58:43;98992.41;;;4.36;78.26
65131;BME280;51709;54.912;8.316;2024-01-15T07:04:04;98995.75;;;4.30;77.86
65131;BME280;51709;54.912;8.316;2024-01-15T07:09:24;99008.19;;;4.31;78.18
65131;BME280;51709;54.912;8.316;2024-01-15T07:14:45;99019.47;;;4.35;78.35
65131;BME280;51709;54.912;8.316;2024-01-15T07:20:07;99032.09;;;4.42;78.39
65131;BME280;51709;54.912;8.316;2024-01-15T07:25:30;99042.16;;;4.48;78.08
65131;BME280;51709;54.912;8.316;2024-01-15T07:30:51;99050.56;;;4.37;77.82
65131;BME280;51709;54.912;8.316;2024-01-15T07:36:14;99053.84;;;4.23;78.02
65131;BME280;51709;54.912;8.316;2024-01-15T07:41:35;99071.44;;;4.09;78.00
65131;BME280;51709;54.912;8.316;2024-01-15T07:46:57;99079.25;;;3.95;78.27
65131;BME280;51709;54.912;8.316;2024-01-15T07:52:17;99096.16;;;3.87;78.20
65131;BME280;51709;54.912;8.316;2024-01-15T07:57:38;99091.91;;;3.77;78.02
65131;BME280;51709;54.912;8.316;2024-01-15T08:02:59;99106.28;;;3.68;78.11
65131;BME280;51709;54.912;8.316;2024-01-15T08:08:19;99124.72;;;3.63;78.21
65131;BME280;51709;54.912;8.316;2024-01-15T08:13:41;99135.22;;;3.56;78.24
65131;BME280;51709;54.912;8.316;2024-01-15T08:19:03;99143.06;;;3.50;78.02
65131;BME280;51709;54.912;8.316;2024-01-15T08:24:24;99157.09;;;3.44;77.67
65131;BME280;51709;54.912;8.316;2024-01-15T08:29:45;99156.44;;;3.42;77.63
65131;BME280;51709;54.912;8.316;2024-01-15T08:35:06;99173.31;;;3.34;77.66
65131;BME280;51709;54.912;8.316;2024-01-15T08:40:28;99183.19;;;3.34;77.85
65131;BME280;51709;54.912;8.316;2024-01-15T08:45:49;99185.88;;;3.34;77.75
65131;BME280;51709;54.912;8.316;2024-01-15T08:51:10;99187.41;;;3.36;77.56
65131;BME280;51709;54.912;8.316;2024-01-15T08:56:30;99198.44;;;3.33;77.42
65131;BME280;51709;54.912;8.316;2024-01-15T09:01:52;99208.63;;;3.30;77.26
65131;BME280;51709;54.912;8.316;2024-01-15T09:07:13;99221.06;;;3.31;77.28
65131;BME280;51709;54.912;8.316;2024-01-15T09:12:34;99229.41;;;3.28;77.39
65131;BME280;51709;54.912;8.316;2024-01-15T09:17:55;99224.72;;;3.30;77.26
65131;BME280;51709;54.912;8.316;2024-01-15T09:23:19;99224.44;;;3.33;76.91
65131;BME280;51709;54.912;8.316;2024-01-15T09:28:39;99231.47;;;3.34;77.25
65131;BME280;51709;54.912;8.316;2024-01-15T09:34:28;99244.69;;;3.27;77.18
65131;BME280;51709;54.912;8.316;2024-01-15T09:39:49;99251.94;;;3.35;77.02
65131;BME280;51709;54.912;8.316;2024-01-15T09:45:11;99256.38;;;3.44;76.85
65131;BME280;51709;54.912;8.316;2024-01-15T09:50:33;99262.59;;;3.62;76.44
65131;BME280;51709;54.912;8.316;2024-01-15T09:55:53;99262.91;;;3.94;76.10
65131;BME280;51709;54.912;8.316;2024-01-15T10:01:16;99262.88;;;4.37;75.45
65131;BME280;51709;54.912;8.316;2024-01-15T10:06:37;99249.75;;;5.01;74.80
65131;BME280;51709;54.912;8.316;2024-01-15T10:12:00;99272.38;;;5.32;74.17
65131;BME280;51709;54.912;8.316;2024-01-15T10:17:21;99270.63;;;7.00;73.09
65131;BME280;51709;54.912;8.316;2024-01-15T10:22:45;99277.16;;;6.67;73.05
65131;BME280;51709;54.912;8.316;2024-01-15T10:28:09;99290.38;;;6.22;73.91
65131;BME280;51709;54.912;8.316;2024-01-15T10:33:30;99279.94;;;6.11;73.83
65131;BME280;51709;54.912;8.316;2024-01-15T10:38:57;99287.28;;;6.57;72.75
65131;BME280;51709;54.912;8.316;2024-01-15T10:44:18;99291.13;;;7.25;71.93
65131;BME280;51709;54.912;8.316;2024-01-15T10:49:39;99305.81;;;8.52;71.00
65131;BME280;51709;54.912;8.316;2024-01-15T10:55:02;99316.84;;;8.28;71.36
65131;BME280;51709;54.912;8.316;2024-01-15T11:00:30;99309.31;;;7.31;72.80
65131;BME280;51709;54.912;8.316;2024-01-15T11:05:53;99315.41;;;7.33;72.89
65131;BME280;51709;54.912;8.316;2024-01-15T11:11:15;99312.78;;;8.47;71.47
65131;BME280;51709;54.912;8.316;2024-01-15T11:16:54;99308.28;;;9.34;71.36
65131;BME280;51709;54.912;8.316;2024-01-15T11:27:52;99298.31;;;15.04;64.97
65131;BME280;51709;54.912;8.316;2024-01-15T11:33:32;99300.31;;;17.34;63.49
65131;BME280;51709;54.912;8.316;2024-01-15T11:38:54;99314.47;;;19.23;60.43
65131;BME280;51709;54.912;8.316;2024-01-15T11:44:15;99311.28;;;20.88;58.06
65131;BME280;51709;54.912;8.316;2024-01-15T11:55:27;99319.38;;;21.26;57.95
65131;BME280;51709;54.912;8.316;2024-01-15T12:00:51;99338.06;;;19.91;56.98
65131;BME280;51709;54.912;8.316;2024-01-15T12:06:14;99358.22;;;17.44;59.88
65131;BME280;51709;54.912;8.316;2024-01-15T12:11:36;99341.28;;;15.64;60.99
65131;BME280;51709;54.912;8.316;2024-01-15T12:16:59;99351.56;;;13.51;63.79
65131;BME280;51709;54.912;8.316;2024-01-15T12:22:22;99362.97;;;11.90;65.30
65131;BME280;51709;54.912;8.316;2024-01-15T12:27:43;99361.66;;;10.56;66.68
65131;BME280;51709;54.912;8.316;2024-01-15T12:33:07;99358.41;;;9.89;67.74
65131;BME280;51709;54.912;8.316;2024-01-15T12:38:30;99346.19;;;9.64;68.00
65131;BME280;51709;54.912;8.316;2024-01-15T12:43:50;99339.28;;;9.61;68.19
65131;BME280;51709;54.912;8.316;2024-01-15T12:49:13;99336.31;;;9.92;67.65
65131;BME280;51709;54.912;8.316;2024-01-15T12:54:35;99356.69;;;9.88;68.44
65131;BME280;51709;54.912;8.316;2024-01-15T12:59:55;99349.66;;;10.71;67.49
65131;BME280;51709;54.912;8.316;2024-01-15T13:05:16;99357.97;;;10.63;67.40
65131;BME280;51709;54.912;8.316;2024-01-15T13:10:37;99355.78;;;9.81;68.98
65131;BME280;51709;54.912;8.316;2024-01-15T13:15:58;99365.75;;;9.15;69.62
65131;BME280;51709;54.912;8.316;2024-01-15T13:21:19;99377.03;;;8.67;70.43
65131;BME280;51709;54.912;8.316;2024-01-15T13:26:40;99386.38;;;8.42;70.51
65131;BME280;51709;54.912;8.316;2024-01-15T13:32:00;99376.59;;;8.18;71.04
65131;BME280;51709;54.912;8.316;2024-01-15T13:37:21;99382.91;;;8.03;71.15
65131;BME280;51709;54.912;8.316;2024-01-15T13:42:42;99377.00;;;7.77;71.51
65131;BME280;51709;54.912;8.316;2024-01-15T13:48:03;99376.34;;;7.67;71.98
65131;BME280;51709;54.912;8.316;2024-01-15T13:53:25;99374.28;;;7.77;71.96
65131;BME280;51709;54.912;8.316;2024-01-15T13:58:46;99368.06;;;7.68;71.93
65131;BME280;51709;54.912;8.316;2024-01-15T14:04:08;99385.72;;;7.01;72.73
65131;BME280;51709;54.912;8.316;2024-01-15T14:09:28;99383.56;;;6.32;74.41
65131;BME280;51709;54.912;8.316;2024-01-15T14:14:49;99389.09;;;6.07;74.50
65131;BME280;51709;54.912;8.316;2024-01-15T14:20:10;99400.78;;;5.32;75.19
65131;BME280;51709;54.912;8.316;2024-01-15T14:25:31;99401.97;;;4.78;76.38
65131;BME280;51709;54.912;8.316;2024-01-15T14:30:52;99415.31;;;4.27;77.46
65131;BME280;51709;54.912;8.316;2024-01-15T14:36:13;99425.97;;;3.84;77.99
65131;BME280;51709;54.912;8.316;2024-01-15T14:41:34;99430.94;;;3.25;78.67
65131;BME280;51709;54.912;8.316;2024-01-15T14:46:55;99451.97;;;2.64;79.56
65131;BME280;51709;54.912;8.316;2024-01-15T14:52:16;99438.88;;;2.42;79.77
65131;BME280;51709;54.912;8.316;2024-01-15T14:57:36;99440.41;;;2.25;79.48
65131;BME280;51709;54.912;8.316;2024-01-15T15:02:57;99427.03;;;2.35;79.42
65131;BME280;51709;54.912;8.316;2024-01-15T15:08:18;99422.38;;;2.37;79.13
65131;BME280;51709;54.912;8.316;2024-01-15T15:13:39;99425.47;;;2.32;78.96
65131;BME280;51709;54.912;8.316;2024-01-15T15:19:05;99428.72;;;2.17;79.12
65131;BME280;51709;54.912;8.316;2024-01-15T15:24:26;99439.72;;;2.13;79.24
65131;BME280;51709;54.912;8.316;2024-01-15T15:29:46;99443.25;;;2.33;79.21
65131;BME280;51709;54.912;8.316;2024-01-15T15:35:08;99480.19;;;2.58;78.62
65131;BME280;51709;54.912;8.316;2024-01-15T15:40:30;99508.13;;;2.46;78.85
65131;BME280;51709;54.912;8.316;2024-01-15T15:45:50;99515.59;;;2.33;78.92
65131;BME280;51709;54.912;8.316;2024-01-15T15:58:43;99531.50;;;2.16;79.28
65131;BME280;51709;54.912;8.316;2024-01-15T16:04:06;99525.28;;;2.15;78.96
65131;BME280;51709;54.912;8.316;2024-01-15T16:09:28;99549.50;;;2.04;79.45
65131;BME280;51709;54.912;8.316;2024-01-15T16:14:49;99550.41;;;2.14;78.78
65131;BME280;51709;54.912;8.316;2024-01-15T16:20:11;99549.41;;;2.15;78.62
65131;BME280;51709;54.912;8.316;2024-01-15T16:25:52;99557.28;;;2.17;78.51
65131;BME280;51709;54.912;8.316;2024-01-15T16:31:14;99579.97;;;2.12;78.58
65131;BME280;51709;54.912;8.316;2024-01-15T16:36:34;99585.59;;;2.09;78.31
65131;BME280;51709;54.912;8.316;2024-01-15T16:41:55;99595.47;;;2.09;78.22
65131;BME280;51709;54.912;8.316;2024-01-15T16:47:16;99634.22;;;2.05;78.07
65131;BME280;51709;54.912;8.316;2024-01-15T16:52:37;99640.50;;;1.94;78.17
65131;BME280;51709;54.912;8.316;2024-01-15T16:57:58;99642.59;;;1.91;78.26
65131;BME280;51709;54.912;8.316;2024-01-15T17:03:19;99660.81;;;1.76;78.51
65131;BME280;51709;54.912;8.316;2024-01-15T17:08:40;99674.88;;;1.48;78.82
65131;BME280;51709;54.912;8.316;2024-01-15T17:14:02;99675.03;;;1.47;78.69
65131;BME280;51709;54.912;8.316;2024-01-15T17:19:24;99672.41;;;1.36;78.43
65131;BME280;51709;54.912;8.316;2024-01-15T17:24:44;99680.59;;;1.23;78.25
65131;BME280;51709;54.912;8.316;2024-01-15T17:30:05;99684.44;;;1.10;78.32
65131;BME280;51709;54.912;8.316;2024-01-15T17:35:27;99683.50;;;0.99;78.18
65131;BME280;51709;54.912;8.316;2024-01-15T17:40:49;99685.72;;;0.94;78.19
65131;BME280;51709;54.912;8.316;2024-01-15T17:46:10;99694.88;;;0.81;78.13
65131;BME280;51709;54.912;8.316;2024-01-15T17:51:31;99710.81;;;0.71;78.39
65131;BME280;51709;54.912;8.316;2024-01-15T17:56:55;99706.22;;;0.62;78.34
65131;BME280;51709;54.912;8.316;2024-01-15T18:02:15;99716.75;;;0.75;77.93
65131;BME280;51709;54.912;8.316;2024-01-15T18:07:36;99724.88;;;0.73;77.91
65131;BME280;51709;54.912;8.316;2024-01-15T18:12:57;99744.31;;;0.75;77.71
65131;BME280;51709;54.912;8.316;2024-01-15T18:18:18;99754.16;;;0.86;77.63
65131;BME280;51709;54.912;8.316;2024-01-15T18:23:39;99756.81;;;0.86;77.58
65131;BME280;51709;54.912;8.316;2024-01-15T18:29:00;99774.41;;;0.88;77.54
65131;BME280;51709;54.912;8.316;2024-01-15T18:34:21;99794.84;;;0.89;77.51
65131;BME280;51709;54.912;8.316;2024-01-15T18:39:44;99814.28;;;0.91;77.26
65131;BME280;51709;54.912;8.316;2024-01-15T18:45:05;99836.63;;;0.90;77.08
65131;BME280;51709;54.912;8.316;2024-01-15T18:50:25;99843.19;;;0.75;77.41
65131;BME280;51709;54.912;8.316;2024-01-15T18:55:46;99849.16;;;0.68;77.47
65131;BME280;51709;54.912;8.316;2024-01-15T19:01:08;99861.41;;;0.59;77.64
65131;BME280;51709;54.912;8.316;2024-01-15T19:06:29;99857.00;;;0.47;77.53
65131;BME280;51709;54.912;8.316;2024-01-15T19:11:50;99870.13;;;0.39;77.46
65131;BME280;51709;54.912;8.316;2024-01-15T19:17:11;99876.78;;;0.34;77.25
65131;BME280;51709;54.912;8.316;2024-01-15T19:22:31;99861.84;;;0.31;77.11
65131;BME280;51709;54.912;8.316;2024-01-15T19:27:52;99886.00;;;0.30;76.99
65131;BME280;51709;54.912;8.316;2024-01-15T19:33:13;99889.72;;;0.16;77.11
65131;BME280;51709;54.912;8.316;2024-01-15T19:38:33;99895.41;;;0.12;77.09
65131;BME280;51709;54.912;8.316;2024-01-15T19:43:54;99902.34;;;0.14;76.70
65131;BME280;51709;54.912;8.316;2024-01-15T19:49:15;99918.34;;;0.14;76.61
65131;BME280;51709;54.912;8.316;2024-01-15T19:54:36;99917.63;;;0.12;76.60
65131;BME280;51709;54.912;8.316;2024-01-15T19:59:56;99931.34;;;0.19;76.30
65131;BME280;51709;54.912;8.316;2024-01-15T20:05:17;99930.03;;;0.24;76.06
65131;BME280;51709;54.912;8.316;2024-01-15T20:10:38;99940.47;;;0.27;76.07
65131;BME280;51709;54.912;8.316;2024-01-15T20:16:05;99940.47;;;0.27;76.03
65131;BME280;51709;54.912;8.316;2024-01-15T20:21:25;99947.91;;;0.35;76.54
65131;BME280;51709;54.912;8.316;2024-01-15T20:26:46;99948.66;;;0.37;76.77
65131;BME280;51709;54.912;8.316;2024-01-15T20:32:07;99945.59;;;0.30;77.02
65131;BME280;51709;54.912;8.316;2024-01-15T20:37:28;99947.78;;;0.25;76.91
65131;BME280;51709;54.912;8.316;2024-01-15T20:42:48;99953.13;;;0.25;77.08
65131;BME280;51709;54.912;8.316;2024-01-15T20:48:09;99960.03;;;0.28;76.94
65131;BME280;51709;54.912;8.316;2024-01-15T20:53:30;99966.28;;;0.39;76.79
65131;BME280;51709;54.912;8.316;2024-01-15T20:58:50;99974.41;;;0.49;76.17
65131;BME280;51709;54.912;8.316;2024-01-15T21:04:11;99978.97;;;0.59;75.99
65131;BME280;51709;54.912;8.316;2024-01-15T21:09:32;99977.31;;;0.80;75.81
65131;BME280;51709;54.912;8.316;2024-01-15T21:14:53;99982.03;;;0.77;75.69
65131;BME280;51709;54.912;8.316;2024-01-15T21:20:16;99995.22;;;0.56;76.07
65131;BME280;51709;54.912;8.316;2024-01-15T21:25:38;99996.38;;;0.41;76.51
65131;BME280;51709;54.912;8.316;2024-01-15T21:30:59;100002.59;;;0.53;76.37
65131;BME280;51709;54.912;8.316;2024-01-15T21:36:20;100004.19;;;0.55;76.08
65131;BME280;51709;54.912;8.316;2024-01-15T21:41:43;100017.34;;;0.69;75.84
65131;BME280;51709;54.912;8.316;2024-01-15T21:47:04;100010.25;;;0.81;75.51
65131;BME280;51709;54.912;8.316;2024-01-15T21:52:24;100018.97;;;0.83;75.43
65131;BME280;51709;54.912;8.316;2024-01-15T21:57:45;100028.84;;;0.93;75.49
65131;BME280;51709;54.912;8.316;2024-01-15T22:03:05;100037.84;;;1.03;75.17
65131;BME280;51709;54.912;8.316;2024-01-15T22:08:26;100046.63;;;1.05;75.29
65131;BME280;51709;54.912;8.316;2024-01-15T22:13:47;100039.34;;;1.08;75.13
65131;BME280;51709;54.912;8.316;2024-01-15T22:19:09;100045.16;;;1.13;74.83
65131;BME280;51709;54.912;8.316;2024-01-15T22:24:29;100049.00;;;0.97;75.24
65131;BME280;51709;54.912;8.316;2024-01-15T22:29:50;100058.47;;;0.90;75.63
65131;BME280;51709;54.912;8.316;2024-01-15T22:35:11;100055.31;;;0.85;75.69
65131;BME280;51709;54.912;8.316;2024-01-15T22:40:32;100057.84;;;0.87;75.71
65131;BME280;51709;54.912;8.316;2024-01-15T22:45:52;100064.06;;;0.87;75.54
65131;BME280;51709;54.912;8.316;2024-01-15T22:51:13;100071.72;;;0.81;75.54
65131;BME280;51709;54.912;8.316;2024-01-15T22:56:33;100081.75;;;0.77;75.12
65131;BME280;51709;54.912;8.316;2024-01-15T23:01:54;100089.06;;;0.75;75.04
65131;BME280;51709;54.912;8.316;2024-01-15T23:07:15;100081.66;;;0.79;75.00
65131;BME280;51709;54.912;8.316;2024-01-15T23:12:36;100076.38;;;0.66;75.42
65131;BME280;51709;54.912;8.316;2024-01-15T23:17:57;100045.22;;;0.54;75.78
65131;BME280;51709;54.912;8.316;2024-01-15T23:23:19;100024.09;;;0.51;75.93
65131;BME280;51709;54.912;8.316;2024-01-15T23:28:39;100028.19;;;0.44;76.13
65131;BME280;51709;54.912;8.316;2024-01-15T23:34:00;100026.16;;;0.24;76.36
65131;BME280;51709;54.912;8.316;2024-01-15T23:39:21;100038.69;;;0.11;76.53
65131;BME280;51709;54.912;8.316;2024-01-15T23:44:42;100042.59;;;0.07;76.24
65131;BME280;51709;54.912;8.316;2024-01-15T23:50:03;100038.00;;;-0.04;76.44
65131;BME280;51709;54.912;8.316;2024-01-15T23:55:24;100045.50;;;-0.09;76.35
